Time;durP1;ratioP1;P1;durP2;ratioP2;P2;SDS_P1;SDS_P2;PMS_P1;PMS_P2;Temp;Humidity;BMP_temperature;BMP_pressure;BME280_temperature;BME280_humidity;BME280_pressure;Samples;Min_cycle;Max_cycle;Signal;HPM_P1;HPM_P2
2021/03/23 00:01:04;;;;;;;10.93;6.40;;;11.40;51.30;;;;;;5036601;28;20432;-43
2021/03/23 00:03:36;;;;;;;14.33;8.20;;;11.40;51.10;;;;;;5037772;28;20475;-43
2021/03/23 00:06:02;;;;;;;10.67;7.40;;;11.40;51.00;;;;;;5042997;28;20431;-42
2021/03/23 00:08:41;;;;;;;10.10;7.07;;;11.40;51.00;;;;;;5048474;28;20540;-42
2021/03/23 00:11:10;;;;;;;12.23;8.20;;;11.50;51.10;;;;;;5033781;28;20500;-43
2021/03/23 00:13:40;;;;;;;10.53;7.47;;;11.50;51.00;;;;;;5039675;28;20479;-43
2021/03/23 00:16:06;;;;;;;11.93;7.40;;;11.50;51.10;;;;;;5040364;28;20998;-42
2021/03/23 00:18:32;;;;;;;12.70;7.57;;;11.50;50.90;;;;;;5048702;28;20442;-45
2021/03/23 00:20:58;;;;;;;10.80;7.53;;;11.50;51.00;;;;;;5046889;28;20943;-43
2021/03/23 00:23:24;;;;;;;11.10;7.73;;;11.50;50.90;;;;;;5046518;28;20195;-44
2021/03/23 00:25:50;;;;;;;11.63;7.07;;;11.50;50.90;;;;;;5035066;28;20423;-43
2021/03/23 00:28:15;;;;;;;12.33;7.30;;;11.50;50.90;;;;;;5037538;28;20231;-44
2021/03/23 00:30:41;;;;;;;12.03;7.60;;;11.50;50.80;;;;;;5042903;28;20800;-42
2021/03/23 00:33:07;;;;;;;13.80;7.73;;;11.50;50.80;;;;;;5047575;28;20707;-43
2021/03/23 00:35:33;;;;;;;11.80;7.33;;;11.60;50.90;;;;;;5046351;28;20202;-42
2021/03/23 00:38:01;;;;;;;13.27;7.53;;;11.50;50.90;;;;;;5044870;28;20189;-43
2021/03/23 00:40:30;;;;;;;11.53;8.20;;;11.50;50.80;;;;;;5045035;28;20842;-43
2021/03/23 00:42:56;;;;;;;16.30;8.40;;;11.50;50.90;;;;;;5035652;28;20439;-42
2021/03/23 00:45:23;;;;;;;15.80;8.30;;;11.50;50.70;;;;;;5036423;28;20815;-42
2021/03/23 00:47:49;;;;;;;9.83;7.57;;;11.60;50.80;;;;;;5034514;28;20495;-44
2021/03/23 00:50:15;;;;;;;11.07;6.67;;;11.50;50.70;;;;;;5046474;28;20424;-43
2021/03/23 00:52:40;;;;;;;10.13;7.23;;;11.50;50.80;;;;;;5047767;28;20442;-43
2021/03/23 00:55:07;;;;;;;12.00;7.50;;;11.50;50.70;;;;;;5041821;28;20262;-43
2021/03/23 00:57:33;;;;;;;12.20;7.20;;;11.50;50.80;;;;;;5043894;28;20212;-44
2021/03/23 00:59:59;;;;;;;13.53;7.80;;;11.50;51.00;;;;;;5038972;28;20474;-44
2021/03/23 01:02:25;;;;;;;10.37;7.20;;;11.60;51.00;;;;;;5048145;28;20197;-42
2021/03/23 01:04:51;;;;;;;10.23;7.20;;;11.50;50.90;;;;;;5036984;28;20192;-43
2021/03/23 01:07:16;;;;;;;9.87;7.10;;;11.50;50.90;;;;;;5035977;28;20488;-44
2021/03/23 01:09:43;;;;;;;9.83;8.23;;;11.50;50.90;;;;;;5044001;28;20470;-43
2021/03/23 01:12:10;;;;;;;13.40;7.23;;;11.40;50.90;;;;;;5034148;28;20428;-43
2021/03/23 01:14:37;;;;;;;13.90;8.07;;;11.40;50.90;;;;;;5042723;28;21335;-43
2021/03/23 01:17:04;;;;;;;9.73;7.37;;;11.40;51.00;;;;;;5037990;28;20526;-42
2021/03/23 01:19:29;;;;;;;12.23;7.53;;;11.40;51.00;;;;;;5043425;28;20467;-43
2021/03/23 01:21:55;;;;;;;13.53;8.73;;;11.50;51.10;;;;;;5037610;28;20432;-43
2021/03/23 01:24:21;;;;;;;13.70;8.03;;;11.50;51.10;;;;;;5046304;28;20188;-42
2021/03/23 01:26:47;;;;;;;13.47;7.70;;;11.50;51.10;;;;;;5046252;28;20510;-42
2021/03/23 01:29:12;;;;;;;12.00;7.00;;;11.40;51.00;;;;;;5043967;28;20201;-42
2021/03/23 01:31:38;;;;;;;11.83;8.33;;;11.50;51.10;;;;;;5034554;28;20682;-43
2021/03/23 01:34:04;;;;;;;12.10;8.17;;;11.50;51.00;;;;;;5043585;28;20197;-42
2021/03/23 01:36:30;;;;;;;11.50;7.80;;;11.40;50.90;;;;;;5043187;28;20675;-42
2021/03/23 01:38:55;;;;;;;10.17;7.20;;;11.50;51.00;;;;;;5037082;28;21029;-42
2021/03/23 01:41:21;;;;;;;12.13;7.70;;;11.50;51.10;;;;;;5031124;28;20281;-43
2021/03/23 01:43:46;;;;;;;10.77;7.30;;;11.40;51.10;;;;;;5044791;28;20718;-43
2021/03/23 01:46:34;;;;;;;12.13;7.70;;;11.40;51.10;;;;;;5046438;28;20196;-43
2021/03/23 01:49:00;;;;;;;18.80;7.53;;;11.40;51.20;;;;;;5041045;28;20211;-43
2021/03/23 01:51:27;;;;;;;11.07;7.63;;;11.40;51.20;;;;;;5038812;28;20439;-42
2021/03/23 01:54:02;;;;;;;13.20;8.13;;;11.40;51.20;;;;;;5039885;28;20435;-42
2021/03/23 01:56:27;;;;;;;11.00;7.50;;;11.50;51.30;;;;;;5042490;28;20439;-42
2021/03/23 01:58:55;;;;;;;9.40;7.00;;;11.40;51.30;;;;;;5044686;28;20447;-42
2021/03/23 02:01:22;;;;;;;17.03;7.80;;;11.40;51.40;;;;;;5040646;28;20633;-42
2021/03/23 02:03:48;;;;;;;8.00;6.20;;;11.40;51.40;;;;;;5036647;28;20464;-43
2021/03/23 02:06:49;;;;;;;10.80;7.20;;;11.40;51.30;;;;;;5036813;28;20488;-42
2021/03/23 02:09:22;;;;;;;15.47;7.90;;;11.40;51.30;;;;;;5029361;28;20866;-43
2021/03/23 02:11:51;;;;;;;10.93;8.00;;;11.40;51.30;;;;;;5042823;28;20494;-44
2021/03/23 02:14:18;;;;;;;16.83;7.77;;;11.40;51.40;;;;;;5042658;28;20460;-43
2021/03/23 02:16:45;;;;;;;11.47;7.43;;;11.40;51.50;;;;;;5050285;28;20455;-43
2021/03/23 02:19:12;;;;;;;9.10;6.80;;;11.40;51.70;;;;;;5043435;28;20474;-42
2021/03/23 02:21:38;;;;;;;12.23;7.67;;;11.40;51.90;;;;;;5040374;28;20426;-42
2021/03/23 02:24:04;;;;;;;14.03;7.33;;;11.40;51.90;;;;;;5044050;28;20431;-42
2021/03/23 02:26:33;;;;;;;12.47;7.23;;;11.40;52.00;;;;;;5041718;28;20655;-44
2021/03/23 02:29:02;;;;;;;16.70;7.33;;;11.40;52.10;;;;;;5041518;28;20961;-42
2021/03/23 02:31:33;;;;;;;16.47;8.63;;;11.40;52.00;;;;;;5040441;28;20468;-43
2021/03/23 02:33:59;;;;;;;15.47;8.37;;;11.30;52.00;;;;;;5036165;28;20943;-42
2021/03/23 02:36:26;;;;;;;12.93;8.00;;;11.30;52.20;;;;;;5050534;28;20419;-43
2021/03/23 02:38:52;;;;;;;14.10;9.57;;;11.30;52.20;;;;;;5053330;28;20531;-43
2021/03/23 02:41:18;;;;;;;14.80;7.90;;;11.30;52.10;;;;;;5042198;28;20514;-43
2021/03/23 02:43:44;;;;;;;12.10;8.30;;;11.40;52.10;;;;;;5042522;28;20196;-43
2021/03/23 02:46:10;;;;;;;13.40;8.63;;;11.30;52.10;;;;;;5047865;28;20427;-43
2021/03/23 02:48:36;;;;;;;14.93;9.20;;;11.40;52.10;;;;;;5044965;28;20483;-43
2021/03/23 02:51:02;;;;;;;15.23;9.20;;;11.30;52.10;;;;;;5044749;28;20207;-42
2021/03/23 02:53:28;;;;;;;12.67;8.80;;;11.30;52.20;;;;;;5046691;28;20190;-42
2021/03/23 02:55:53;;;;;;;13.17;10.63;;;11.30;52.10;;;;;;5047395;28;20927;-42
2021/03/23 02:58:19;;;;;;;17.60;9.13;;;11.30;52.10;;;;;;5045829;28;20431;-42
2021/03/23 03:00:45;;;;;;;14.33;9.50;;;11.40;52.10;;;;;;5044098;28;20881;-43
2021/03/23 03:03:12;;;;;;;13.57;8.87;;;11.40;52.10;;;;;;5050479;28;20863;-42
2021/03/23 03:05:38;;;;;;;16.83;9.80;;;11.40;52.20;;;;;;5046392;28;20946;-42
2021/03/23 03:08:04;;;;;;;18.37;9.73;;;11.50;52.80;;;;;;5052755;28;20491;-42
2021/03/23 03:10:30;;;;;;;15.40;9.90;;;11.30;52.10;;;;;;5041831;28;20491;-44
2021/03/23 03:12:58;;;;;;;20.97;10.30;;;11.40;52.20;;;;;;5036321;28;20431;-43
2021/03/23 03:15:24;;;;;;;15.83;9.93;;;11.40;52.30;;;;;;5044916;28;20300;-43
2021/03/23 03:17:49;;;;;;;20.13;10.20;;;11.40;52.30;;;;;;5045449;28;20478;-42
2021/03/23 03:20:16;;;;;;;19.13;10.20;;;11.30;52.30;;;;;;5047875;28;20534;-43
2021/03/23 03:22:41;;;;;;;12.97;9.70;;;11.30;52.30;;;;;;5050042;28;20190;-43
2021/03/23 03:25:09;;;;;;;17.47;11.20;;;11.40;52.40;;;;;;5041362;28;20429;-42
2021/03/23 03:27:34;;;;;;;18.97;11.10;;;11.40;52.40;;;;;;5045871;28;20665;-43
2021/03/23 03:30:00;;;;;;;16.30;10.17;;;11.30;52.40;;;;;;5046871;28;20526;-42
2021/03/23 03:32:26;;;;;;;17.67;11.93;;;11.30;52.40;;;;;;5047967;28;20189;-42
2021/03/23 03:34:52;;;;;;;17.83;11.00;;;11.30;52.50;;;;;;5045351;28;20660;-42
2021/03/23 03:37:17;;;;;;;14.77;10.00;;;11.40;52.70;;;;;;5046240;28;20431;-42
2021/03/23 03:39:43;;;;;;;15.77;10.13;;;11.30;52.70;;;;;;5046382;28;20219;-43
2021/03/23 03:42:09;;;;;;;18.23;10.17;;;11.30;52.70;;;;;;5050463;28;20263;-42
2021/03/23 03:44:34;;;;;;;19.30;11.40;;;11.20;52.70;;;;;;5053392;28;20192;-43
2021/03/23 03:47:00;;;;;;;20.80;11.50;;;11.20;52.70;;;;;;5038583;28;20217;-42
2021/03/23 03:49:25;;;;;;;17.13;10.67;;;11.30;52.70;;;;;;5045896;28;20193;-44
2021/03/23 03:51:51;;;;;;;16.13;10.40;;;11.20;52.70;;;;;;5036463;28;20205;-42
2021/03/23 03:54:17;;;;;;;21.47;13.03;;;11.30;52.70;;;;;;5043384;28;20208;-42
2021/03/23 03:56:42;;;;;;;22.80;12.50;;;11.20;52.80;;;;;;5039381;28;20720;-42
2021/03/23 03:59:08;;;;;;;22.93;11.93;;;11.20;52.70;;;;;;5043417;28;20556;-42
2021/03/23 04:01:33;;;;;;;18.17;10.93;;;11.20;52.60;;;;;;5045414;28;20201;-42
2021/03/23 04:03:59;;;;;;;18.33;11.30;;;11.30;52.40;;;;;;5048988;28;20305;-42
2021/03/23 04:06:24;;;;;;;19.47;11.50;;;11.30;52.30;;;;;;5045355;28;20236;-42
2021/03/23 04:08:50;;;;;;;18.93;11.90;;;11.30;52.30;;;;;;5041278;28;20197;-42
2021/03/23 04:11:16;;;;;;;15.57;10.07;;;11.30;52.20;;;;;;5039584;28;20636;-42
2021/03/23 04:13:41;;;;;;;15.80;11.00;;;11.30;52.20;;;;;;5039424;28;20563;-42
2021/03/23 04:16:07;;;;;;;17.13;10.93;;;11.30;52.30;;;;;;5049831;28;20196;-43
2021/03/23 04:18:33;;;;;;;18.10;11.70;;;11.30;52.30;;;;;;5041269;28;20642;-43
2021/03/23 04:21:02;;;;;;;16.90;10.97;;;11.20;52.30;;;;;;5038135;28;20527;-43
2021/03/23 04:23:40;;;;;;;19.87;11.87;;;11.20;52.50;;;;;;5043476;28;20189;-44
2021/03/23 04:26:08;;;;;;;17.17;10.70;;;11.20;52.50;;;;;;5048373;28;20431;-42
2021/03/23 04:28:34;;;;;;;21.10;12.83;;;11.20;52.30;;;;;;5042119;28;20483;-43
2021/03/23 04:31:00;;;;;;;19.10;11.37;;;11.20;52.30;;;;;;5045365;28;20496;-42
2021/03/23 04:33:27;;;;;;;21.37;11.50;;;11.20;52.50;;;;;;5049791;28;20419;-43
2021/03/23 04:36:02;;;;;;;24.07;12.30;;;11.20;52.30;;;;;;5039413;28;20197;-42
2021/03/23 04:38:31;;;;;;;22.20;12.40;;;11.20;52.20;;;;;;5045987;28;20439;-44
2021/03/23 04:40:59;;;;;;;16.30;11.30;;;11.30;52.30;;;;;;5043481;28;20443;-42
2021/03/23 04:43:38;;;;;;;20.70;11.93;;;11.20;52.20;;;;;;5041927;28;20797;-42
2021/03/23 04:46:04;;;;;;;21.47;10.73;;;11.30;52.20;;;;;;5044219;28;20539;-43
2021/03/23 04:48:29;;;;;;;19.20;11.60;;;11.30;52.10;;;;;;5039201;28;20530;-42
2021/03/23 04:50:55;;;;;;;19.77;11.60;;;11.30;52.10;;;;;;5049355;28;20779;-43
2021/03/23 04:53:30;;;;;;;17.20;11.23;;;11.30;52.20;;;;;;5051557;28;20199;-44
2021/03/23 04:55:56;;;;;;;19.00;12.57;;;11.30;52.00;;;;;;5044511;28;20207;-43
2021/03/23 04:58:23;;;;;;;22.63;11.97;;;11.30;52.00;;;;;;5040797;28;20435;-43
2021/03/23 05:00:49;;;;;;;16.60;10.90;;;11.40;52.10;;;;;;5033562;28;20440;-42
2021/03/23 05:03:17;;;;;;;17.03;10.37;;;11.40;52.00;;;;;;5039474;28;20969;-42
2021/03/23 05:05:42;;;;;;;23.27;11.20;;;11.40;51.90;;;;;;5047781;28;20457;-43
2021/03/23 05:08:08;;;;;;;19.43;13.30;;;11.40;51.90;;;;;;5050464;28;20490;-43
2021/03/23 05:10:34;;;;;;;21.90;13.53;;;11.40;51.90;;;;;;5040684;28;20196;-42
2021/03/23 05:13:00;;;;;;;19.80;12.43;;;11.30;51.90;;;;;;5036521;28;20262;-42
2021/03/23 05:15:25;;;;;;;18.53;13.13;;;11.40;52.00;;;;;;5033865;28;20205;-43
2021/03/23 05:17:51;;;;;;;25.73;13.30;;;11.40;52.10;;;;;;5041171;28;20447;-42
2021/03/23 05:20:17;;;;;;;18.97;11.57;;;11.40;52.10;;;;;;5039610;28;20592;-43
2021/03/23 05:22:42;;;;;;;17.97;11.60;;;11.30;52.00;;;;;;5042176;28;20272;-42
2021/03/23 05:25:10;;;;;;;21.57;13.53;;;11.40;52.20;;;;;;5043200;28;20645;-43
2021/03/23 05:27:35;;;;;;;20.87;11.67;;;11.30;52.20;;;;;;5042053;28;20239;-42
2021/03/23 05:30:02;;;;;;;15.80;11.37;;;11.30;52.20;;;;;;5035967;28;20432;-43
2021/03/23 05:32:27;;;;;;;23.10;11.20;;;11.30;52.30;;;;;;5043900;28;20240;-43
2021/03/23 05:34:53;;;;;;;18.70;11.90;;;11.30;52.30;;;;;;5042051;28;20939;-42
2021/03/23 05:37:19;;;;;;;20.40;11.50;;;11.30;52.20;;;;;;5042416;28;20224;-44
2021/03/23 05:39:44;;;;;;;34.10;13.43;;;11.30;52.20;;;;;;5043456;28;20195;-43
2021/03/23 05:42:21;;;;;;;26.07;12.30;;;11.30;52.20;;;;;;5049087;28;20532;-43
2021/03/23 05:45:14;;;;;;;18.10;10.90;;;11.20;52.10;;;;;;5046058;28;20226;-43
2021/03/23 05:47:42;;;;;;;21.20;12.43;;;11.30;52.10;;;;;;5045929;28;20500;-42
2021/03/23 05:50:31;;;;;;;20.83;12.73;;;11.30;52.00;;;;;;5053223;28;20459;-42
2021/03/23 05:53:06;;;;;;;18.13;11.30;;;11.30;52.10;;;;;;5050896;28;20490;-42
2021/03/23 05:55:44;;;;;;;14.47;10.40;;;11.30;52.10;;;;;;5045250;28;20537;-43
2021/03/23 05:58:15;;;;;;;21.23;12.10;;;11.30;52.00;;;;;;5039644;28;20439;-42
2021/03/23 06:00:48;;;;;;;16.20;11.07;;;11.30;52.10;;;;;;5037628;28;20869;-43
2021/03/23 06:03:21;;;;;;;19.50;11.60;;;11.30;52.30;;;;;;5037760;28;20435;-43
2021/03/23 06:05:56;;;;;;;21.93;12.10;;;11.30;52.20;;;;;;5047163;28;20470;-43
2021/03/23 06:08:26;;;;;;;16.83;11.10;;;11.30;52.20;;;;;;5048051;28;20525;-43
2021/03/23 06:11:07;;;;;;;20.70;12.77;;;11.30;52.20;;;;;;5046956;28;20526;-43
2021/03/23 06:13:50;;;;;;;23.60;12.40;;;11.30;52.40;;;;;;5042755;28;20430;-42
2021/03/23 06:16:54;;;;;;;15.07;11.30;;;11.40;52.70;;;;;;5047997;28;21006;-42
2021/03/23 06:19:19;;;;;;;19.07;11.13;;;11.60;53.40;;;;;;5041593;28;20456;-42
2021/03/23 06:21:48;;;;;;;19.23;12.27;;;11.90;53.00;;;;;;5049459;28;20931;-41
2021/03/23 06:24:22;;;;;;;16.93;11.50;;;12.20;52.70;;;;;;5042986;28;20212;-42
2021/03/23 06:27:25;;;;;;;16.77;11.23;;;12.40;52.00;;;;;;5052067;28;20470;-42
2021/03/23 06:30:22;;;;;;;16.23;11.60;;;12.60;50.90;;;;;;5040202;28;20448;-42
2021/03/23 06:32:51;;;;;;;18.80;11.93;;;12.80;50.40;;;;;;5047411;28;20590;-42
2021/03/23 06:35:29;;;;;;;18.97;11.30;;;12.90;50.00;;;;;;5048864;28;20857;-42
2021/03/23 06:37:55;;;;;;;23.50;13.10;;;13.10;49.30;;;;;;5050503;28;20508;-42
2021/03/23 06:40:33;;;;;;;17.27;10.50;;;13.10;48.80;;;;;;5046001;28;20791;-42
2021/03/23 06:43:35;;;;;;;22.40;11.80;;;13.10;48.60;;;;;;5047587;28;20459;-42
2021/03/23 06:46:04;;;;;;;25.77;14.50;;;13.10;48.40;;;;;;5027208;28;20451;-42
2021/03/23 06:48:31;;;;;;;21.00;13.60;;;13.10;48.40;;;;;;5040179;28;20565;-42
2021/03/23 06:51:15;;;;;;;18.83;11.40;;;13.20;48.50;;;;;;5039688;28;20432;-42
2021/03/23 06:53:42;;;;;;;25.47;13.47;;;13.30;48.40;;;;;;5041098;28;20900;-42
2021/03/23 06:56:15;;;;;;;19.17;11.03;;;13.40;47.90;;;;;;5043008;28;20847;-42
2021/03/23 06:58:41;;;;;;;21.50;12.87;;;13.40;47.70;;;;;;5037617;28;20523;-42
2021/03/23 07:01:25;;;;;;;20.80;12.70;;;13.40;47.50;;;;;;5039120;28;20563;-41
2021/03/23 07:03:53;;;;;;;21.57;13.13;;;13.40;47.50;;;;;;5048635;28;20219;-42
2021/03/23 07:06:29;;;;;;;19.00;11.80;;;13.40;47.80;;;;;;5045168;28;20512;-42
2021/03/23 07:09:16;;;;;;;19.53;12.80;;;13.40;47.80;;;;;;5037249;28;20452;-42
2021/03/23 07:12:08;;;;;;;21.20;14.43;;;13.50;48.00;;;;;;5039255;28;20454;-42
2021/03/23 07:14:40;;;;;;;20.53;12.73;;;13.50;47.70;;;;;;5045382;28;20451;-42
2021/03/23 07:17:08;;;;;;;23.03;14.90;;;13.50;47.50;;;;;;5040601;28;21128;-42
2021/03/23 07:19:56;;;;;;;20.93;13.77;;;13.50;47.50;;;;;;5045154;28;20950;-42
2021/03/23 07:22:29;;;;;;;21.77;15.30;;;13.50;47.70;;;;;;5035863;28;20476;-42
2021/03/23 07:24:57;;;;;;;18.33;12.30;;;13.50;47.80;;;;;;5045862;28;21107;-42
2021/03/23 07:27:27;;;;;;;22.43;13.80;;;13.50;47.50;;;;;;5046544;28;20542;-42
2021/03/23 07:30:40;;;;;;;20.73;12.97;;;13.60;47.70;;;;;;5043248;28;21004;-42
2021/03/23 07:33:14;;;;;;;19.07;11.50;;;13.70;47.60;;;;;;5041630;28;20443;-42
2021/03/23 07:35:41;;;;;;;16.77;12.70;;;13.80;47.60;;;;;;5037143;28;20428;-42
2021/03/23 07:38:16;;;;;;;17.90;12.83;;;13.90;47.30;;;;;;5047028;28;20467;-42
2021/03/23 07:40:51;;;;;;;23.60;14.80;;;13.90;47.00;;;;;;5047710;28;20439;-42
2021/03/23 07:43:26;;;;;;;22.93;14.90;;;13.90;47.20;;;;;;5047848;28;20449;-42
2021/03/23 07:46:06;;;;;;;20.77;13.70;;;13.90;46.90;;;;;;5039179;28;20432;-42
2021/03/23 07:48:43;;;;;;;16.47;12.37;;;13.80;47.00;;;;;;5034899;28;20483;-42
2021/03/23 07:51:24;;;;;;;23.80;16.07;;;13.90;47.40;;;;;;5040403;28;20930;-42
2021/03/23 07:53:50;;;;;;;24.33;15.20;;;14.00;47.20;;;;;;5041860;28;20434;-42
2021/03/23 07:56:53;;;;;;;20.10;13.57;;;14.00;47.00;;;;;;5042446;28;20500;-42
2021/03/23 07:59:22;;;;;;;20.00;13.73;;;14.10;47.20;;;;;;5042493;28;20874;-42
2021/03/23 08:01:59;;;;;;;25.90;14.90;;;14.20;46.90;;;;;;5044360;28;20439;-42
2021/03/23 08:04:48;;;;;;;22.67;14.60;;;14.30;46.70;;;;;;5039411;28;20954;-42
2021/03/23 08:07:36;;;;;;;20.67;14.00;;;14.30;46.20;;;;;;5033630;28;20479;-42
2021/03/23 08:10:16;;;;;;;22.60;15.87;;;14.30;46.30;;;;;;5047553;28;20529;-42
2021/03/23 08:13:03;;;;;;;28.10;15.93;;;14.40;46.20;;;;;;5042638;28;20443;-42
2021/03/23 08:16:06;;;;;;;26.17;15.97;;;14.40;46.10;;;;;;5039210;28;20471;-42
2021/03/23 08:18:44;;;;;;;20.70;11.00;;;14.30;46.10;;;;;;5032908;28;20439;-42
2021/03/23 08:21:25;;;;;;;18.73;11.17;;;14.30;46.50;;;;;;5036227;28;20951;-42
2021/03/23 08:24:28;;;;;;;19.10;11.30;;;14.40;47.30;;;;;;5041591;28;20498;-42
2021/03/23 08:27:25;;;;;;;17.50;13.33;;;14.60;48.00;;;;;;5033594;28;20554;-42
2021/03/23 08:30:12;;;;;;;13.97;8.70;;;14.90;47.70;;;;;;5040375;28;20451;-42
2021/03/23 08:32:50;;;;;;;19.97;13.20;;;15.10;47.50;;;;;;5036310;28;20447;-43
2021/03/23 08:35:51;;;;;;;22.33;14.03;;;15.20;46.90;;;;;;5040013;28;20821;-43
2021/03/23 08:38:33;;;;;;;19.03;13.60;;;15.50;46.10;;;;;;5042691;28;20450;-43
2021/03/23 08:41:14;;;;;;;26.53;15.50;;;15.50;45.10;;;;;;5044473;28;20436;-42
2021/03/23 08:43:43;;;;;;;18.60;11.87;;;15.70;45.30;;;;;;5044503;28;20470;-43
2021/03/23 08:46:18;;;;;;;27.20;16.53;;;15.70;44.90;;;;;;5040297;28;20480;-43
2021/03/23 08:48:53;;;;;;;22.53;14.40;;;15.80;44.60;;;;;;5038898;28;22038;-43
2021/03/23 08:51:23;;;;;;;20.00;11.57;;;15.80;44.30;;;;;;5038267;28;20529;-42
2021/03/23 08:53:56;;;;;;;15.33;10.20;;;15.80;44.50;;;;;;5045631;28;20882;-42
2021/03/23 08:56:48;;;;;;;16.00;10.10;;;15.90;45.10;;;;;;5044252;28;20520;-42
2021/03/23 08:59:34;;;;;;;27.43;15.23;;;15.90;45.30;;;;;;5040966;28;20531;-41
2021/03/23 09:02:07;;;;;;;21.40;14.00;;;15.80;44.80;;;;;;5037856;28;20453;-42
2021/03/23 09:04:35;;;;;;;21.47;10.77;;;16.00;43.40;;;;;;5038811;28;20424;-41
2021/03/23 09:07:09;;;;;;;21.80;15.93;;;16.10;44.60;;;;;;5044992;28;20838;-41
2021/03/23 09:09:40;;;;;;;25.30;16.57;;;16.30;43.90;;;;;;5036735;28;20501;-41
2021/03/23 09:12:34;;;;;;;26.23;15.17;;;16.30;43.00;;;;;;5038494;28;20435;-42
2021/03/23 09:15:10;;;;;;;19.93;14.00;;;16.30;42.70;;;;;;5038571;28;20496;-42
2021/03/23 09:18:01;;;;;;;24.00;15.30;;;16.30;43.50;;;;;;5041497;28;20443;-41
2021/03/23 09:20:32;;;;;;;28.30;15.60;;;16.30;42.80;;;;;;5034800;28;20443;-41
2021/03/23 09:23:21;;;;;;;20.47;14.57;;;16.20;42.40;;;;;;5034665;28;20530;-40
2021/03/23 09:25:59;;;;;;;23.80;16.03;;;16.00;42.50;;;;;;5034067;28;20474;-42
2021/03/23 09:28:34;;;;;;;25.20;14.33;;;15.80;42.90;;;;;;5046321;28;20482;-41
2021/03/23 09:31:21;;;;;;;22.20;14.23;;;15.60;43.40;;;;;;5041177;28;20815;-41
2021/03/23 09:33:52;;;;;;;19.93;13.90;;;15.70;43.40;;;;;;5038278;28;20471;-41
2021/03/23 09:36:45;;;;;;;20.70;14.87;;;15.80;43.50;;;;;;5035755;28;20447;-41
2021/03/23 09:39:13;;;;;;;22.60;15.30;;;15.90;43.20;;;;;;5039716;28;20995;-41
2021/03/23 09:41:41;;;;;;;24.20;14.10;;;15.80;42.80;;;;;;5046342;28;20435;-41
2021/03/23 09:44:06;;;;;;;23.60;15.00;;;15.80;42.80;;;;;;5038844;28;20524;-40
2021/03/23 09:46:32;;;;;;;22.33;14.30;;;15.50;42.40;;;;;;5044782;28;20467;-41
2021/03/23 09:49:17;;;;;;;18.60;13.00;;;15.40;43.20;;;;;;5034668;28;20225;-42
2021/03/23 09:52:00;;;;;;;21.20;12.93;;;15.20;43.10;;;;;;5040406;28;20201;-41
2021/03/23 09:54:26;;;;;;;20.63;12.83;;;15.30;43.60;;;;;;5048124;28;20942;-41
2021/03/23 09:56:54;;;;;;;20.80;11.57;;;15.20;43.20;;;;;;5037324;28;20473;-42
2021/03/23 09:59:29;;;;;;;21.27;12.93;;;15.40;43.80;;;;;;5037779;28;20189;-43
2021/03/23 10:02:02;;;;;;;16.50;10.93;;;15.10;43.10;;;;;;5034103;28;20446;-42
2021/03/23 10:04:31;;;;;;;13.33;9.40;;;14.30;42.80;;;;;;5042817;28;20443;-43
2021/03/23 10:06:59;;;;;;;14.70;9.60;;;14.10;44.50;;;;;;5032034;28;20989;-42
2021/03/23 10:09:35;;;;;;;16.17;10.40;;;14.50;44.00;;;;;;5036487;28;20436;-42
2021/03/23 10:12:02;;;;;;;11.90;9.00;;;14.90;43.90;;;;;;5038319;28;20503;-42
2021/03/23 10:14:31;;;;;;;9.27;6.53;;;14.90;43.30;;;;;;5040802;28;20926;-41
2021/03/23 10:17:20;;;;;;;10.83;7.90;;;15.00;42.50;;;;;;5041325;28;20908;-43
2021/03/23 10:19:52;;;;;;;11.70;8.77;;;14.90;41.50;;;;;;5045610;28;20462;-41
2021/03/23 10:22:29;;;;;;;9.00;7.30;;;14.50;41.40;;;;;;5038725;28;20490;-40
2021/03/23 10:24:56;;;;;;;12.70;7.10;;;14.70;42.10;;;;;;5036856;28;20950;-41
2021/03/23 10:27:28;;;;;;;10.27;7.23;;;15.00;41.90;;;;;;5043107;28;20521;-41
2021/03/23 10:30:08;;;;;;;9.87;6.03;;;15.30;41.10;;;;;;5046645;28;20547;-40
2021/03/23 10:32:36;;;;;;;11.60;6.70;;;15.40;39.90;;;;;;5045969;28;20447;-40
2021/03/23 10:35:39;;;;;;;11.57;8.10;;;15.50;39.50;;;;;;5037893;28;20926;-41
2021/03/23 10:38:29;;;;;;;10.37;7.40;;;15.30;39.80;;;;;;5041232;28;20447;-40
2021/03/23 10:40:57;;;;;;;10.70;6.23;;;15.40;39.50;;;;;;5045527;28;20447;-40
2021/03/23 10:43:34;;;;;;;12.07;8.30;;;15.50;39.60;;;;;;5040062;28;20442;-40
2021/03/23 10:46:03;;;;;;;13.03;8.30;;;15.30;40.10;;;;;;5044594;28;20458;-40
2021/03/23 10:48:34;;;;;;;12.13;7.70;;;15.30;39.80;;;;;;5050570;28;20528;-40
2021/03/23 10:51:13;;;;;;;9.90;7.50;;;15.50;39.50;;;;;;5048777;28;20444;-40
2021/03/23 10:54:06;;;;;;;8.60;6.30;;;15.40;39.40;;;;;;5045106;28;20423;-40
2021/03/23 10:56:38;;;;;;;7.87;6.20;;;15.50;39.00;;;;;;5042114;28;20446;-40
2021/03/23 10:59:13;;;;;;;11.83;7.53;;;15.30;38.90;;;;;;5039686;28;20435;-40
2021/03/23 11:02:13;;;;;;;11.10;7.37;;;15.20;39.10;;;;;;5045787;28;20450;-41
2021/03/23 11:04:58;;;;;;;9.90;7.10;;;15.10;39.60;;;;;;5047650;28;20435;-41
2021/03/23 11:07:27;;;;;;;10.53;7.33;;;15.00;39.60;;;;;;5049639;28;20486;-41
2021/03/23 11:09:56;;;;;;;14.60;9.23;;;14.90;40.10;;;;;;5039201;28;20922;-40
2021/03/23 11:12:21;;;;;;;13.70;8.40;;;15.00;40.40;;;;;;5043129;28;20478;-41
2021/03/23 11:14:48;;;;;;;12.60;8.57;;;15.00;40.10;;;;;;5047756;28;20470;-41
2021/03/23 11:17:15;;;;;;;28.23;9.50;;;15.10;40.20;;;;;;5033869;28;20824;-42
2021/03/23 11:19:44;;;;;;;15.90;10.27;;;14.80;41.30;;;;;;5036365;28;20448;-42
2021/03/23 11:22:31;;;;;;;13.40;8.97;;;14.80;41.60;;;;;;5044304;28;20428;-41
2021/03/23 11:24:57;;;;;;;20.33;9.57;;;14.90;41.60;;;;;;5037516;28;20859;-40
2021/03/23 11:27:26;;;;;;;15.67;9.63;;;15.00;41.50;;;;;;5048565;28;21001;-41
2021/03/23 11:29:53;;;;;;;14.27;9.17;;;14.90;40.80;;;;;;5041889;28;20659;-41
2021/03/23 11:32:18;;;;;;;13.27;7.90;;;14.90;40.90;;;;;;5045005;28;20466;-41
2021/03/23 11:34:44;;;;;;;15.10;8.70;;;15.00;40.90;;;;;;5040049;28;20479;-41
2021/03/23 11:37:09;;;;;;;11.70;7.83;;;15.10;40.80;;;;;;5049981;28;20200;-40
2021/03/23 11:39:35;;;;;;;9.23;7.23;;;15.10;40.40;;;;;;5052937;28;20199;-41
2021/03/23 11:42:35;;;;;;;11.97;8.20;;;15.10;40.00;;;;;;5052333;28;20239;-42
2021/03/23 11:45:06;;;;;;;13.90;8.63;;;15.10;40.30;;;;;;5051713;28;20524;-41
2021/03/23 11:47:44;;;;;;;11.20;8.10;;;15.10;39.60;;;;;;5052539;28;20920;-42
2021/03/23 11:50:13;;;;;;;11.37;8.43;;;15.10;39.80;;;;;;5052095;28;20434;-41
2021/03/23 11:52:40;;;;;;;11.33;8.97;;;15.10;39.90;;;;;;5052522;28;20989;-41
2021/03/23 11:55:09;;;;;;;11.43;7.80;;;15.20;39.80;;;;;;5039738;28;20451;-41
2021/03/23 11:57:36;;;;;;;12.10;8.10;;;15.10;39.40;;;;;;5050820;28;20799;-40
2021/03/23 12:00:03;;;;;;;14.27;9.70;;;15.20;39.20;;;;;;5043659;28;20431;-41
2021/03/23 12:02:29;;;;;;;12.23;8.80;;;15.20;39.70;;;;;;5052002;28;20418;-41
2021/03/23 12:04:56;;;;;;;16.20;8.50;;;15.10;39.80;;;;;;5051225;28;20431;-41
2021/03/23 12:07:58;;;;;;;13.33;8.43;;;15.10;39.80;;;;;;5052109;28;20243;-41
2021/03/23 12:10:26;;;;;;;12.07;9.40;;;15.10;39.90;;;;;;5051737;28;20469;-42
2021/03/23 12:13:12;;;;;;;11.53;8.17;;;15.00;39.70;;;;;;5052321;28;20435;-42
2021/03/23 12:15:43;;;;;;;12.23;8.57;;;14.90;40.70;;;;;;5049985;28;20530;-41
2021/03/23 12:18:15;;;;;;;12.70;9.63;;;15.00;40.70;;;;;;5052240;28;20433;-41
2021/03/23 12:20:42;;;;;;;12.57;9.73;;;15.00;40.70;;;;;;5051694;28;20429;-41
2021/03/23 12:23:09;;;;;;;11.93;8.40;;;15.10;41.00;;;;;;5051335;28;20439;-41
2021/03/23 12:25:35;;;;;;;14.37;10.50;;;15.20;40.40;;;;;;5049950;28;20482;-41
2021/03/23 12:28:01;;;;;;;18.20;12.30;;;15.30;40.20;;;;;;5051924;28;20485;-40
2021/03/23 12:30:27;;;;;;;21.30;14.00;;;15.30;40.30;;;;;;5055906;28;20418;-40
2021/03/23 12:32:55;;;;;;;15.23;11.43;;;15.20;39.90;;;;;;5047987;28;20481;-40
2021/03/23 12:35:26;;;;;;;20.63;12.07;;;15.30;40.10;;;;;;5047296;28;20419;-40
2021/03/23 12:37:56;;;;;;;14.17;10.50;;;15.30;40.50;;;;;;5054198;28;20921;-41
2021/03/23 12:40:23;;;;;;;14.53;10.03;;;15.40;40.30;;;;;;5037595;28;20443;-40
2021/03/23 12:42:51;;;;;;;13.30;9.87;;;15.40;39.70;;;;;;5051495;28;20433;-40
2021/03/23 12:45:29;;;;;;;16.10;9.97;;;15.40;39.30;;;;;;5054606;28;20462;-42
2021/03/23 12:47:55;;;;;;;12.17;9.03;;;15.50;38.90;;;;;;5047237;28;20493;-41
2021/03/23 12:50:21;;;;;;;14.57;9.90;;;15.60;38.90;;;;;;5047965;28;20431;-42
2021/03/23 12:52:48;;;;;;;17.23;12.30;;;15.60;38.90;;;;;;5047651;28;20441;-41
2021/03/23 12:55:23;;;;;;;17.90;13.50;;;15.60;39.80;;;;;;5047513;28;20438;-42